Lompoc, CA

2:46 PM PDT on August 31, 2015 (GMT -0700)
Crestview Terrace | | Change Station
CLOSE
Current Station
Personal Weather Station
Location: Lompoc, CA
Elevation: 184 ft
Nearby Weather Stations

Elev 184 ft 34.64 °N, 120.44 °W | Updated 1 minute ago

Clear
Clear
77.0 °F
Feels Like 79 °F
N
11.0
Wind Variable Wind from WNW
Gusts 21.0 mph

Today
High -- | Low -- °F
--% Chance of Precip.
Yesterday
High -- | Low -- °F
Precip. -- in
6:33 AM 7:29 PM
Waning Gibbous, 93% visible
Pressure 29.94 in
Visibility 10.0 miles
Clouds Clear
Heat Index 79 °F
Dew Point 57 °F
Humidity 51%
Rainfall 0.00 in
Snow Depth Not available.
UV 9 out of 12
Pollen 8.00 out of 12
Air Quality Not available.
Flu Activity Not available.
METAR KLPC 312135Z AUTO 26015G20KT 10SM CLR 22/14 A2994 RMK AO1
Pressure 29.94 in
Visibility 10.0 miles
Clouds Clear
Heat Index 79 °F
Dew Point 57 °F
Humidity 51%
Rainfall 0.00 in
Snow Depth Not available.
UV 9 out of 12
Pollen 8.00 out of 12
Air Quality Not available.
Flu Activity Not available.
METAR KLPC 312135Z AUTO 26015G20KT 10SM CLR 22/14 A2994 RMK AO1

10-Day Weather Forecast

×

Almanac

Astronomy

Aug. 31, 2015 Rise Set
Actual Time
Civil Twilight
Nautical Twilight
Astronomical Twilight
Moon
Length of Visible Light
Length of Day
Tomorrow will be .
, % of the Moon is Illuminated

Today's Extremes

State Highs State Lows

Community

WunderPhotos

Upload Photos

1,851,377 photos uploaded!

WunderBlogs® & News

Nearby

Air Quality

  Air Quality AQ Index Pollutant
Not available.

Snow Depth

Station Depth Elevation

Earthquake Activity

City Distance Mag. Time & Date
Minimum magnitude displayed is 2.5.

Coastal Water Temperatures

Place Temperature

Stations

Nearby Weather Stations

Station Location Temp. Windchill Dew Point Humidity Wind Precip. Elev Updated Type